Map

Track Data

SID SEASON NUMBER BASIN SUBBASIN NAME ISO_TIME NATURE LAT LON WMO_WIND WMO_PRES WMO_AGENCY TRACK_TYPE DIST2LAND LANDFALL IFLAG USA_AGENCY USA_ATCF_ID USA_LAT USA_LON USA_RECORD USA_STATUS USA_WIND USA_PRES USA_SSHS USA_R34_NE USA_R34_SE USA_R34_SW USA_R34_NW USA_R50_NE USA_R50_SE USA_R50_SW USA_R50_NW USA_R64_NE USA_R64_SE USA_R64_SW USA_R64_NW USA_POCI USA_ROCI USA_RMW USA_EYE TOKYO_LAT TOKYO_LON TOKYO_GRADE TOKYO_WIND TOKYO_PRES TOKYO_R50_DIR TOKYO_R50_LONG TOKYO_R50_SHORT TOKYO_R30_DIR TOKYO_R30_LONG TOKYO_R30_SHORT TOKYO_LAND CMA_LAT CMA_LON CMA_CAT CMA_WIND CMA_PRES HKO_LAT HKO_LON HKO_CAT HKO_WIND HKO_PRES NEWDELHI_LAT NEWDELHI_LON NEWDELHI_GRADE NEWDELHI_WIND NEWDELHI_PRES NEWDELHI_CI NEWDELHI_DP NEWDELHI_POCI REUNION_LAT REUNION_LON REUNION_TYPE REUNION_WIND REUNION_PRES REUNION_TNUM REUNION_CI REUNION_RMW REUNION_R34_NE REUNION_R34_SE REUNION_R34_SW REUNION_R34_NW REUNION_R50_NE REUNION_R50_SE REUNION_R50_SW REUNION_R50_NW REUNION_R64_NE REUNION_R64_SE REUNION_R64_SW REUNION_R64_NW BOM_LAT BOM_LON BOM_TYPE BOM_WIND BOM_PRES BOM_TNUM BOM_CI BOM_RMW BOM_R34_NE BOM_R34_SE BOM_R34_SW BOM_R34_NW BOM_R50_NE BOM_R50_SE BOM_R50_SW BOM_R50_NW BOM_R64_NE BOM_R64_SE BOM_R64_SW BOM_R64_NW BOM_ROCI BOM_POCI BOM_EYE BOM_POS_METHOD BOM_PRES_METHOD NADI_LAT NADI_LON NADI_CAT NADI_WIND NADI_PRES WELLINGTON_LAT WELLINGTON_LON WELLINGTON_WIND WELLINGTON_PRES DS824_LAT DS824_LON DS824_STAGE DS824_WIND DS824_PRES TD9636_LAT TD9636_LON TD9636_STAGE TD9636_WIND TD9636_PRES TD9635_LAT TD9635_LON TD9635_WIND TD9635_PRES TD9635_ROCI NEUMANN_LAT NEUMANN_LON NEUMANN_CLASS NEUMANN_WIND NEUMANN_PRES MLC_LAT MLC_LON MLC_CLASS MLC_WIND MLC_PRES USA_GUST BOM_GUST BOM_GUST_PER REUNION_GUST REUNION_GUST_PER USA_SEAHGT USA_SEARAD_NE USA_SEARAD_SE USA_SEARAD_SW USA_SEARAD_NW STORM_SPEED STORM_DIR
1989080S16066 1989 23 SI MM JINABO 1989-03-21 06:00:00 TS -16.0000 65.6000 main 952 941 O_________O_O_ jtwc_sh SH191989 -16.0000 65.6000 25 -1 -16.0000 65.6000 1 25 -16.0000 65.6000 TC 25 5 186
1989080S16066 1989 23 SI MM JINABO 1989-03-21 09:00:00 TS -16.2489 65.5933 main 941 926 P_________P_P_ SH191989 -16.2525 65.5950 25 -1 -16.2416 65.5899 1 25 -16.2525 65.5950 TC 25 5 178
1989080S16066 1989 23 SI MM JINABO 1989-03-21 12:00:00 TS -16.5000 65.6000 main 926 915 O_________O_O_ jtwc_sh SH191989 -16.5000 65.6000 25 -1 -16.5000 65.6000 1 25 -16.5000 65.6000 TC 25 5 178
1989080S16066 1989 23 SI MM JINABO 1989-03-21 15:00:00 TS -16.7567 65.6224 main 910 900 P_________P_P_ SH191989 -16.7425 65.6149 25 -1 -16.7852 65.6374 1 25 -16.7425 65.6149 TC 25 5 0
1989080S16066 1989 23 SI MM JINABO 1989-03-21 18:00:00 TS -17.0266 65.6187 main 900 886 O_________P_O_ jtwc_sh SH191989 -17.0000 65.6000 25 -1 -17.0798 65.6562 1 25 -17.0000 65.6000 TC 25 6 184
1989080S16066 1989 23 SI MM JINABO 1989-03-21 21:00:00 TS -17.3297 65.5723 main 886 854 P_________P_P_ SH191989 -17.3149 65.5599 25 -1 -17.3595 65.5969 1 25 -17.3149 65.5599 TC 25 6 200
1989080S16066 1989 23 SI MM JINABO 1989-03-22 00:00:00 TS -17.6000 65.4000 main 854 816 O_________O_O_ jtwc_sh SH191989 -17.6000 65.4000 25 -1 -17.6000 65.4000 1 25 -17.6000 65.4000 TC 25 7 226
1989080S16066 1989 23 SI MM JINABO 1989-03-22 03:00:00 TS -17.7908 65.0677 main 816 763 P_________P_P_ SH191989 -17.7798 65.0899 25 -1 -17.8129 65.0232 1 25 -17.7798 65.0899 TC 25 9 248
1989080S16066 1989 23 SI MM JINABO 1989-03-22 06:00:00 TS -17.9258 64.5680 main 763 700 O_________P_O_ jtwc_sh SH191989 -17.9000 64.6000 25 -1 -17.9775 64.5041 1 25 -17.9000 64.6000 TC 25 11 256
1989080S16066 1989 23 SI MM JINABO 1989-03-22 09:00:00 TS -18.0510 63.9394 main 686 618 P_________P_P_ SH191989 -18.0374 63.9678 25 -1 -18.0783 63.8827 1 25 -18.0374 63.9678 TC 25 13 262
1989080S16066 1989 23 SI MM JINABO 1989-03-22 12:00:00 TS -18.1000 63.2000 main 618 546 O_________O_O_ jtwc_sh SH191989 -18.1000 63.2000 25 -1 -18.1000 63.2000 1 25 -18.1000 63.2000 TC 25 15 270
1989080S16066 1989 23 SI MM JINABO 1989-03-22 15:00:00 TS -18.0429 62.3857 main 546 478 P_________P_P_ SH191989 -18.0453 62.3348 25 -1 -18.0381 62.4876 1 25 -18.0453 62.3348 TC 25 16 277
1989080S16066 1989 23 SI MM JINABO 1989-03-22 18:00:00 TS -17.8996 61.5778 main 478 430 O_________P_O_ jtwc_sh SH191989 -17.9000 61.5000 25 -1 -17.8988 61.7335 1 25 -17.9000 61.5000 TC 25 15 283
1989080S16066 1989 23 SI MM JINABO 1989-03-22 21:00:00 TS -17.7130 60.8943 main 430 399 P_________P_P_ SH191989 -17.7146 60.8475 25 -1 -17.7100 60.9877 1 25 -17.7146 60.8475 TC 25 13 288
1989080S16066 1989 23 SI MM JINABO 1989-03-23 00:00:00 TS -17.5000 60.3000 main 399 380 O_________O_O_ jtwc_sh SH191989 -17.5000 60.3000 25 -1 -17.5000 60.3000 1 25 -17.5000 60.3000 TC 25 12 291
1989080S16066 1989 23 SI MM JINABO 1989-03-23 03:00:00 TS -17.2974 59.7686 main 383 375 P_________P_P_ SH191989 -17.2998 59.7852 25 -1 -17.2927 59.7355 1 25 -17.2998 59.7852 TC 25 11 295
1989080S16066 1989 23 SI MM JINABO 1989-03-23 06:00:00 TS -17.0464 59.2639 24 1000 reunion main 385 376 O____O____P_O_ jtwc_sh SH191989 -17.1000 59.3000 25 -1 -16.5000 59.1000 2 24 1000 2.00000 2.00000 -17.0759 59.2326 1 25 -17.1000 59.3000 TC 25 11 297
1989080S16066 1989 23 SI MM JINABO 1989-03-23 09:00:00 TS -16.8021 58.7520 main 387 381 P____P____P_P_ SH191989 -16.8849 58.8000 25 -1 -16.3328 58.5372 2 24 1000 -16.8711 58.7635 1 25 -16.8849 58.8000 TC 25 11 294
1989080S16066 1989 23 SI MM JINABO 1989-03-23 12:00:00 TS -16.6000 58.2400 24 1000 reunion main 395 393 O____O____O_O_ jtwc_sh SH191989 -16.7000 58.3000 25 -1 -16.2000 58.0000 2 24 1000 2.00000 2.00000 -16.7000 58.3000 1 25 -16.7000 58.3000 TC 25 10 289
1989080S16066 1989 23 SI MM JINABO 1989-03-23 15:00:00 TS -16.4687 57.7284 main 402 402 P____P____P_P_ SH191989 -16.5774 57.8001 25 -1 -16.1274 57.5126 2 24 1000 -16.5928 57.8007 1 25 -16.5774 57.8001 TC 25 10 282
1989080S16066 1989 23 SI MM JINABO 1989-03-23 18:00:00 TS -16.4049 57.2502 24 1000 reunion main 414 414 O____O____P_O_ jtwc_sh SH191989 -16.5000 57.3000 25 -1 -16.1000 57.1000 2 24 1000 2.00000 2.00000 -16.5195 57.3009 1 25 -16.5000 57.3000 TC 25 9 277
1989080S16066 1989 23 SI MM JINABO 1989-03-23 21:00:00 TS -16.3653 56.7984 main 420 420 P____P____P_P_ SH191989 -16.4499 56.8001 25 -1 -16.0998 56.7926 2 24 1000 -16.4615 56.8006 1 25 -16.4499 56.8001 TC 25 9 275
1989080S16066 1989 23 SI MM JINABO 1989-03-24 00:00:00 TS -16.3250 56.3500 24 1000 reunion main 440 440 O____O____O_O_ jtwc_sh SH191989 -16.4000 56.3000 25 -1 -16.1000 56.5000 2 24 1000 2.00000 2.00000 -16.4000 56.3000 1 25 -16.4000 56.3000 TC 25 9 279
1989080S16066 1989 23 SI MM JINABO 1989-03-24 03:00:00 TS -16.2327 55.8933 main 467 467 P____P____P_P_ SH191989 -16.3074 55.8000 25 -1 -16.0494 56.1899 2 26 998 -16.2665 55.7832 1 25 -16.3074 55.8000 TC 25 9 282
1989080S16066 1989 23 SI MM JINABO 1989-03-24 06:00:00 TS -16.1331 55.3923 28 997 reunion main 499 465 O____O____P_O_ jtwc_sh SH191989 -16.2000 55.3000 25 -1 -16.0000 55.7000 2 28 997 2.50000 2.50000 -16.1324 55.2691 1 25 -16.2000 55.3000 TC 25 11 280
1989080S16066 1989 23 SI MM JINABO 1989-03-24 09:00:00 TS -16.0414 54.7869 main 465 401 P____P____P_P_ SH191989 -16.0700 54.7848 25 -1 -15.9936 54.8076 2 28 997 -16.0321 54.7705 1 25 -16.0700 54.7848 TC 25 12 277
1989080S16066 1989 23 SI MM JINABO 1989-03-24 12:00:00 TS -16.0000 54.2000 28 997 reunion main 401 359 O____O____O_O_ jtwc_sh SH191989 -16.0000 54.3000 25 -1 -16.0000 53.9000 2 28 997 2.50000 2.50000 -16.0000 54.3000 1 25 -16.0000 54.3000 TC 25 10 271
1989080S16066 1989 23 SI MM JINABO 1989-03-24 15:00:00 TS -16.0311 53.7491 main 349 320 P____P____P_P_ SH191989 -16.0548 53.8851 27 -1 -15.9694 53.3749 2 28 997 -16.0454 53.8513 1 27 -16.0548 53.8851 TC 27 8 260
1989080S16066 1989 23 SI MM JINABO 1989-03-24 18:00:00 TS -16.1412 53.3582 28 997 reunion main 320 285 O____O____P_O_ jtwc_sh SH191989 -16.2000 53.5000 30 -1 -16.0000 53.0000 2 28 997 2.50000 2.50000 -16.1647 53.4328 1 30 -16.2000 53.5000 TC 30 8 250
1989080S16066 1989 23 SI MM JINABO 1989-03-24 21:00:00 TS -16.3116 52.9545 main 285 255 P____P____P_P_ SH191989 -16.3699 53.0999 32 -1 -16.1550 52.5701 2 28 997 -16.3517 53.0479 1 32 -16.3699 53.0999 TC 32 9 241
1989080S16066 1989 23 SI MM JINABO 1989-03-25 00:00:00 TS -16.5500 52.5750 28 997 reunion main 255 231 O____O____O_O_ jtwc_sh SH191989 -16.6000 52.7000 35 0 -16.4000 52.2000 2 28 997 2.50000 2.50000 -16.6000 52.7000 2 35 -16.6000 52.7000 TC 35 9 234
1989080S16066 1989 23 SI MM JINABO 1989-03-25 03:00:00 TS -16.8315 52.2015 main 231 219 P____P____P_P_ SH191989 -16.8701 52.2626 40 0 -16.6774 51.9199 2 32 994 -16.9086 52.3611 2 40 -16.8701 52.2626 TC 40 9 227
1989080S16066 1989 23 SI MM JINABO 1989-03-25 06:00:00 TS -17.1675 51.8902 36 991 reunion main 225 212 O____O____P_O_ jtwc_sh SH191989 -17.2000 51.9000 45 0 -17.0000 51.7000 3 36 991 3.00000 3.00000 -17.2698 52.0607 2 45 -17.2000 51.9000 TC 45 9 215
1989080S16066 1989 23 SI MM JINABO 1989-03-25 09:00:00 TS -17.5527 51.6730 main 220 211 P____P____P_P_ SH191989 -17.6074 51.7049 50 0 -17.3500 51.4775 3 36 991 -17.6462 51.8048 2 50 -17.6074 51.7049 TC 50 8 205
1989080S16066 1989 23 SI MM JINABO 1989-03-25 12:00:00 TS -17.9250 51.5250 36 991 reunion main 212 205 O____O____O_O_ jtwc_sh SH191989 -18.0000 51.6000 55 0 -17.7000 51.3000 3 36 991 3.00000 3.00000 -18.0000 51.6000 2 55 -18.0000 51.6000 TC 55 7 201
1989080S16066 1989 23 SI MM JINABO 1989-03-25 15:00:00 TS -18.2109 51.4118 main 208 201 P____P____P_P_ SH191989 -18.2725 51.4924 55 0 -18.0000 51.1849 3 36 991 -18.2986 51.4774 2 55 -18.2725 51.4924 TC 55 6 199
1989080S16066 1989 23 SI MM JINABO 1989-03-25 18:00:00 TS -18.4667 51.3248 36 991 reunion main 203 203 O____O____P_O_ jtwc_sh SH191989 -18.5000 51.4000 55 0 -18.3000 51.1000 3 36 991 3.00000 3.00000 -18.5669 51.3991 2 55 -18.5000 51.4000 TC 55 6 196
1989080S16066 1989 23 SI MM JINABO 1989-03-25 21:00:00 TS -18.7510 51.2527 main 211 200 P____P____P_P_ SH191989 -18.7649 51.3299 55 0 -18.6724 51.0299 3 36 991 -18.8018 51.3213 2 55 -18.7649 51.3299 TC 55 6 200
1989080S16066 1989 23 SI MM JINABO 1989-03-26 00:00:00 TS -19.0000 51.1250 36 991 reunion main 200 184 O____O____O_O_ jtwc_sh SH191989 -19.0000 51.2000 55 0 -19.0000 50.9000 3 36 991 3.00000 3.00000 -19.0000 51.2000 2 55 -19.0000 51.2000 TC 55 6 222
1989080S16066 1989 23 SI MM JINABO 1989-03-26 03:00:00 TS -19.1725 50.8490 main 177 161 P____P____P_P_ SH191989 -19.1726 50.9225 57 0 -19.1877 50.6000 3 40 987 -19.1572 50.9510 2 57 -19.1726 50.9225 TC 57 6 242
1989080S16066 1989 23 SI MM JINABO 1989-03-26 06:00:00 TS -19.2951 50.5394 44 984 reunion main 150 133 O____O____P_O_ jtwc_sh SH191989 -19.3000 50.6000 60 0 -19.3000 50.3000 3 44 984 3.50000 3.50000 -19.2805 50.6575 2 60 -19.3000 50.6000 TC 60 6 247
1989080S16066 1989 23 SI MM JINABO 1989-03-26 09:00:00 TS -19.3933 50.2962 main 133 118 P____P____P_P_ SH191989 -19.3925 50.3274 62 0 -19.3999 50.1699 3 48 980 -19.3885 50.3603 2 62 -19.3925 50.3274 TC 62 5 244
1989080S16066 1989 23 SI MM JINABO 1989-03-26 12:00:00 TS -19.5000 50.1000 52 976 reunion main 118 114 O____O____O_O_ jtwc_sh SH191989 -19.5000 50.1000 65 1 -19.5000 50.1000 3 52 976 4.00000 4.00000 -19.5000 50.1000 3 65 -19.5000 50.1000 TC 65 4 230
1989080S16066 1989 23 SI MM JINABO 1989-03-26 15:00:00 TS -19.6741 49.9457 main 109 104 P____P____P_P_ SH191989 -19.7000 49.9275 65 1 -19.6500 50.0000 3 52 976 -19.6466 49.9277 3 65 -19.7000 49.9275 TC 65 4 216
1989080S16066 1989 23 SI MM JINABO 1989-03-26 18:00:00 TS -19.8499 49.8243 52 976 reunion main 104 94 O____O____P_O_ jtwc_sh SH191989 -19.9000 49.8000 65 1 -19.8000 49.9000 3 52 976 4.00000 4.00000 -19.7997 49.7973 3 65 -19.9000 49.8000 TC 65 4 216
1989080S16066 1989 23 SI MM JINABO 1989-03-26 21:00:00 TS -19.9707 49.7177 main 94 84 P____P____P_P_ SH191989 -20.0150 49.6924 65 1 -19.9000 49.7925 3 57 971 -19.9530 49.6933 3 65 -20.0150 49.6924 TC 65 3 219
1989080S16066 1989 23 SI MM JINABO 1989-03-27 00:00:00 TS -20.0750 49.6250 62 966 reunion main 84 76 O____O____O_O_ jtwc_sh SH191989 -20.1000 49.6000 65 1 -20.0000 49.7000 3 62 966 4.50000 4.50000 -20.1000 49.6000 4 65 -20.1000 49.6000 TC 65 3 219
1989080S16066 1989 23 SI MM JINABO 1989-03-27 03:00:00 TS -20.1967 49.5259 main 76 71 P____P____P_P_ SH191989 -20.1925 49.5000 65 1 -20.1575 49.6350 3 62 966 -20.2444 49.4685 4 65 -20.1925 49.5000 TC 65 3 216
1989080S16066 1989 23 SI MM JINABO 1989-03-27 06:00:00 TS -20.3200 49.4369 62 966 reunion main 71 71 O____O____P_O_ jtwc_sh SH191989 -20.3000 49.4000 65 1 -20.3000 49.6000 3 62 966 4.50000 4.50000 -20.3800 49.3476 4 65 -20.3000 49.4000 TC 65 3 214
1989080S16066 1989 23 SI MM JINABO 1989-03-27 09:00:00 TS -20.4414 49.3482 main 66 66 P____P____P_P_ SH191989 -20.4500 49.2776 65 1 -20.3650 49.5850 3 62 966 -20.5006 49.2529 4 65 -20.4500 49.2776 TC 65 3 210
1989080S16066 1989 23 SI MM JINABO 1989-03-27 12:00:00 TS -20.5500 49.3000 62 966 reunion main 70 76 O____O____O_O_ jtwc_sh SH191989 -20.6000 49.2000 65 1 -20.4000 49.6000 3 62 966 4.50000 4.50000 -20.6000 49.2000 4 65 -20.6000 49.2000 TC 65 2 0
1989080S16066 1989 23 SI MM JINABO 1989-03-27 15:00:00 TS -20.6437 49.3299 main 76 76 P____P____P_P_ SH191989 -20.7225 49.2274 62 0 -20.4500 49.6500 3 57 971 -20.6797 49.2149 4 62 -20.7225 49.2274 TC 62 2 152
1989080S16066 1989 23 SI MM JINABO 1989-03-27 18:00:00 TS -20.7094 49.3925 52 976 reunion main 89 89 O____O____P_O_ jtwc_sh SH191989 -20.8000 49.3000 60 0 -20.5000 49.7000 3 52 976 4.00000 4.00000 -20.7375 49.2698 4 60 -20.8000 49.3000 TC 60 1 131
1989080S16066 1989 23 SI MM JINABO 1989-03-27 21:00:00 TS -20.7373 49.4387 main 89 89 P____P____P_P_ SH191989 -20.8150 49.3575 57 0 -20.5425 49.7000 3 48 980 -20.7766 49.3399 4 57 -20.8150 49.3575 TC 57 1 117
1989080S16066 1989 23 SI MM JINABO 1989-03-28 00:00:00 TS -20.7500 49.4750 44 984 reunion main 99 99 O____O____O_O_ jtwc_sh SH191989 -20.8000 49.4000 55 0 -20.6000 49.7000 3 44 984 3.50000 3.50000 -20.8000 49.4000 2 55 -20.8000 49.4000 TC 55 1 136
1989080S16066 1989 23 SI MM JINABO 1989-03-28 03:00:00 TS -20.7776 49.4889 main 103 103 P____P____P_P_ SH191989 -20.8000 49.4075 55 0 -20.7000 49.7425 3 48 980 -20.8103 49.3982 2 55 -20.8000 49.4075 TC 55 1 158
1989080S16066 1989 23 SI MM JINABO 1989-03-28 06:00:00 TS -20.8019 49.4963 52 976 reunion main 103 103 O____O____P_O_ jtwc_sh SH191989 -20.8000 49.4000 55 0 -20.8000 49.8000 3 52 976 4.00000 4.00000 -20.8075 49.3850 2 55 -20.8000 49.4000 TC 55 0 147
1989080S16066 1989 23 SI MM JINABO 1989-03-28 09:00:00 TS -20.8108 49.5036 main 103 103 P____P____P_P_ SH191989 -20.7925 49.3925 55 0 -20.8575 49.8500 3 52 976 -20.8009 49.3794 2 55 -20.7925 49.3925 TC 55 0 0
1989080S16066 1989 23 SI MM JINABO 1989-03-28 12:00:00 TS -20.8250 49.5250 52 976 reunion main 103 103 O____O____O_O_ jtwc_sh SH191989 -20.8000 49.4000 55 0 -20.9000 49.9000 3 52 976 4.00000 4.00000 -20.8000 49.4000 2 55 -20.8000 49.4000 TC 55 1 135
1989080S16066 1989 23 SI MM JINABO 1989-03-28 15:00:00 TS -20.8669 49.5652 main 118 118 P____P____P_P_ SH191989 -20.8500 49.4275 52 0 -20.9500 49.9425 3 48 980 -20.8178 49.4631 2 52 -20.8500 49.4275 TC 52 1 129
1989080S16066 1989 23 SI MM JINABO 1989-03-28 18:00:00 TS -20.9106 49.6387 44 984 reunion main 118 118 O____O____P_O_ jtwc_sh SH191989 -20.9000 49.5000 50 0 -21.0000 50.0000 3 44 984 3.50000 3.50000 -20.8425 49.5550 2 50 -20.9000 49.5000 TC 50 2 110
1989080S16066 1989 23 SI MM JINABO 1989-03-28 21:00:00 TS -20.9321 49.7561 main 136 136 P____P____P_P_ SH191989 -20.9075 49.6350 47 0 -21.0425 50.0850 3 40 987 -20.8709 49.6694 2 47 -20.9075 49.6350 TC 47 2 99
1989080S16066 1989 23 SI MM JINABO 1989-03-29 00:00:00 TS -20.9500 49.9000 36 991 reunion main 146 150 O____O____O_O_ jtwc_sh SH191989 -20.9000 49.8000 45 0 -21.1000 50.2000 3 36 991 3.00000 3.00000 -20.9000 49.8000 2 45 -20.9000 49.8000 TC 45 3 99
1989080S16066 1989 23 SI MM JINABO 1989-03-29 03:00:00 TS -20.9734 50.0437 main 160 160 P____P____P_P_ SH191989 -20.8925 49.9500 42 0 -21.2000 50.3350 3 36 991 -20.9088 49.9398 2 42 -20.8925 49.9500 TC 42 3 101
1989080S16066 1989 23 SI MM JINABO 1989-03-29 06:00:00 TS -21.0050 50.1982 36 991 reunion main 179 179 O____O____P_O_ jtwc_sh SH191989 -20.9000 50.1000 40 0 -21.3000 50.5000 3 36 991 3.00000 3.00000 -20.9201 50.0927 2 40 -20.9000 50.1000 TC 40 3 103
1989080S16066 1989 23 SI MM JINABO 1989-03-29 09:00:00 TS -21.0416 50.3623 main 198 198 P____P____P_P_ SH191989 -20.9425 50.2500 37 0 -21.3350 50.7001 3 36 991 -20.9463 50.2492 2 37 -20.9425 50.2500 TC 37 3 107
1989080S16066 1989 23 SI MM JINABO 1989-03-29 12:00:00 TS -21.1000 50.5250 36 991 reunion main 212 212 O____O____O_O_ jtwc_sh SH191989 -21.0000 50.4000 35 0 -21.4000 50.9000 3 36 991 3.00000 3.00000 -21.0000 50.4000 2 35 -21.0000 50.4000 TC 35 3 114
1989080S16066 1989 23 SI MM JINABO 1989-03-29 15:00:00 TS -21.1738 50.6831 main 235 235 P____P____P_P_ SH191989 -21.0275 50.5576 35 0 -21.5925 51.0649 3 36 991 -21.0475 50.5524 2 33 -21.0275 50.5576 TC 35 3 123
1989080S16066 1989 23 SI MM JINABO 1989-03-29 18:00:00 TS -21.2825 50.8237 36 991 reunion main 249 249 O____O____P_O_ jtwc_sh SH191989 -21.1000 50.7000 35 0 -21.8000 51.2000 3 36 991 3.00000 3.00000 -21.1301 50.6949 2 32 -21.1000 50.7000 TC 35 3 136
1989080S16066 1989 23 SI MM JINABO 1989-03-29 21:00:00 TS -21.4150 50.9344 main 262 262 P____P____P_P_ SH191989 -21.2475 50.8076 32 -1 -21.8925 51.3076 3 36 991 -21.2725 50.8149 2 31 -21.2475 50.8076 TC 32 4 152
1989080S16066 1989 23 SI MM JINABO 1989-03-30 00:00:00 TS -21.6250 51.0250 36 991 reunion main 277 277 O____O____O_O_ jtwc_sh SH191989 -21.5000 50.9000 30 -1 -22.0000 51.4000 3 36 991 3.00000 3.00000 -21.5000 50.9000 1 30 -21.5000 50.9000 TC 30 6 161
1989080S16066 1989 23 SI MM JINABO 1989-03-30 03:00:00 TS -21.9401 51.1327 main 294 294 P____P____P_P_ SH191989 -21.8625 51.0297 27 -1 -22.2050 51.5075 3 36 991 -21.8305 50.9639 1 28 -21.8625 51.0297 TC 27 7 168
1989080S16066 1989 23 SI MM JINABO 1989-03-30 06:00:00 TS -22.3362 51.1973 36 991 reunion main 314 314 O____O____P_O_ jtwc_sh SH191989 -22.3000 51.1000 25 -1 -22.5000 51.6000 3 36 991 3.00000 3.00000 -22.2449 50.9892 1 27 -22.3000 51.1000 TC 25 8 177
1989080S16066 1989 23 SI MM JINABO 1989-03-30 09:00:00 TS -22.7667 51.1868 main 328 326 P____P____P_P_ SH191989 -22.7425 51.0376 25 -1 -22.8699 51.7021 3 36 991 -22.7118 50.9700 1 26 -22.7425 51.0376 TC 25 9 186
1989080S16066 1989 23 SI MM JINABO 1989-03-30 12:00:00 TS -23.2250 51.1000 36 991 reunion main 335 326 O____O____O_O_ jtwc_sh SH191989 -23.2000 50.9000 25 -1 -23.3000 51.7000 3 36 991 3.00000 3.00000 -23.2000 50.9000 1 25 -23.2000 50.9000 TC 25 9 194
1989080S16066 1989 23 SI MM JINABO 1989-03-30 15:00:00 TS -23.6600 50.9395 main 327 315 P____P____P_P_ SH191989 -23.6425 50.7649 25 -1 -23.7427 51.4804 3 36 991 -23.6122 50.7479 1 25 -23.6425 50.7649 TC 25 10 200
1989080S16066 1989 23 SI MM JINABO 1989-03-30 18:00:00 MX -24.1114 50.7379 36 991 reunion main 315 311 O____O____P_O_ jtwc_sh SH191989 -24.1000 50.6000 25 -1 -24.2000 51.2000 5 36 991 3.00000 3.00000 -24.0456 50.5516 1 25 -24.1000 50.6000 TC 25 10 200
1989080S16066 1989 23 SI MM JINABO 1989-03-30 21:00:00 MX -24.5896 50.5603 main 321 311 P____P____P_P_ SH191989 -24.5925 50.4075 25 -1 -24.6423 51.0718 5 36 991 -24.5310 50.3543 1 25 -24.5925 50.4075 TC 25 10 197
1989080S16066 1989 23 SI MM JINABO 1989-03-31 00:00:00 MX -25.1000 50.4000 36 991 reunion main 317 312 O____O____O_O_ jtwc_sh SH191989 -25.1000 50.2000 25 -1 -25.1000 50.9000 5 36 991 3.00000 3.00000 -25.1000 50.2000 1 25 -25.1000 50.2000 TC 25 11 198
1989080S16066 1989 23 SI MM JINABO 1989-03-31 03:00:00 MX -25.6630 50.1641 main 320 311 P____P____P_P_ SH191989 -25.6025 49.9978 22 -1 -25.5779 50.4119 5 36 991 -25.8086 50.0827 1 25 -25.6025 49.9978 TC 22 13 196
1989080S16066 1989 23 SI MM JINABO 1989-03-31 06:00:00 MX -26.2987 50.0094 36 991 reunion main 324 324 O____O____P_O_ jtwc_sh SH191989 -26.1000 49.8000 20 -1 -26.1000 50.1000 5 36 991 3.00000 3.00000 -26.5967 50.0235 1 25 -26.1000 49.8000 TC 20 14 175
1989080S16066 1989 23 SI MM JINABO 1989-03-31 09:00:00 ET -27.0486 50.2994 main 389 389 _____P____P___ SH191989 -1 -26.6858 50.5465 5 36 991 -27.4115 50.0523 1 25 TC 16 160
1989080S16066 1989 23 SI MM JINABO 1989-03-31 12:00:00 ET -27.7500 50.6000 36 991 reunion main 460 468 _____O____O___ -1 -27.3000 51.0000 5 36 991 3.00000 3.00000 -28.2000 50.2000 1 25 14 170
1989080S16066 1989 23 SI MM JINABO 1989-03-31 15:00:00 ET -28.4121 50.5553 main 513 513 _____P____P___ -1 -27.8931 50.6112 5 32 994 -28.9311 50.4994 1 25 13 182
1989080S16066 1989 23 SI MM JINABO 1989-03-31 18:00:00 ET -29.0604 50.5590 28 997 reunion main 571 571 _____O____P___ -1 -28.5000 50.2000 5 28 997 2.50000 2.50000 -29.6208 50.9180 1 25 13 166
1989080S16066 1989 23 SI MM JINABO 1989-03-31 21:00:00 ET -29.7037 50.9332 main 641 641 _____P____P___ -1 -29.1575 50.4634 5 26 998 -30.2500 51.4031 1 25 15 148
1989080S16066 1989 23 SI MM JINABO 1989-04-01 00:00:00 ET -30.3000 51.4500 24 1000 reunion main 729 723 _____O____O___ -1 -29.8000 51.0000 5 24 1000 2.00000 2.00000 -30.8000 51.9000 1 25 14 142
1989080S16066 1989 23 SI MM JINABO 1989-04-01 03:00:00 ET -30.7820 51.8923 main 797 797 _____P____P___ -1 -30.3040 51.4208 5 24 1000 -31.2601 52.3637 1 23 13 140
1989080S16066 1989 23 SI MM JINABO 1989-04-01 06:00:00 ET -31.2737 52.3969 24 1000 reunion main 870 870 _____O____P___ -1 -30.9000 52.0000 5 24 1000 2.00000 2.00000 -31.6475 52.7939 1 22 15 138
1989080S16066 1989 23 SI MM JINABO 1989-04-01 09:00:00 ET -31.8768 53.0300 main 958 958 _____P____P___ -1 -31.7675 52.8581 5 30 -31.9862 53.2019 1 21 17 138
1989080S16066 1989 23 SI MM JINABO 1989-04-01 12:00:00 TS -32.5500 53.7500 36 reunion main 1057 _____O____O___ -1 -32.8000 53.9000 6 36 9.90000 -32.3000 53.6000 1 20 18 138

About IBTrACS Database

This database is a web-friendly format of International Best Track Archive for Climate Stewardship (IBTrACS), a global best track data archive curated by NOAA dating back to 1842.

Updated: 2021-12-03